createdAt,value
2018-12-15T00:01:23.490Z,24.30
2018-12-15T00:04:01.797Z,23.87
2018-12-15T00:06:57.260Z,24.77
2018-12-15T00:09:29.398Z,27.37
2018-12-15T00:12:06.085Z,25.90
2018-12-15T00:14:40.346Z,22.33
2018-12-15T00:17:22.794Z,21.30
2018-12-15T00:19:53.452Z,22.87
2018-12-15T00:22:41.895Z,21.17
2018-12-15T00:25:22.680Z,22.43
2018-12-15T00:27:56.295Z,24.67
2018-12-15T00:30:35.759Z,20.47
2018-12-15T00:33:09.422Z,23.07
2018-12-15T00:35:45.373Z,19.40
2018-12-15T00:38:22.082Z,22.93
2018-12-15T00:40:58.343Z,20.57
2018-12-15T00:43:34.572Z,18.67
2018-12-15T00:46:14.959Z,19.87
2018-12-15T00:48:47.051Z,19.50
2018-12-15T00:51:23.180Z,22.20
2018-12-15T00:53:55.256Z,19.27
2018-12-15T00:56:37.571Z,19.23
2018-12-15T00:59:09.385Z,18.87
2018-12-15T01:01:45.661Z,21.20
2018-12-15T01:04:21.782Z,18.13
2018-12-15T01:06:53.922Z,18.63
2018-12-15T01:09:29.745Z,25.27
2018-12-15T01:12:08.206Z,19.17
2018-12-15T01:14:44.866Z,25.87
2018-12-15T01:17:21.529Z,19.93
2018-12-15T01:19:55.535Z,18.57
2018-12-15T01:22:29.731Z,19.30
2018-12-15T01:25:06.433Z,21.30
2018-12-15T01:27:43.078Z,18.67
2018-12-15T01:30:19.645Z,19.03
2018-12-15T01:32:50.031Z,19.07
2018-12-15T01:35:30.479Z,23.03
2018-12-15T01:38:03.780Z,18.57
2018-12-15T01:40:34.184Z,19.00
2018-12-15T01:43:04.574Z,17.50
2018-12-15T01:45:44.237Z,18.23
2018-12-15T01:48:14.652Z,20.60
2018-12-15T01:50:45.017Z,23.67
2018-12-15T01:53:17.355Z,20.40
2018-12-15T01:55:50.936Z,20.37
2018-12-15T01:58:26.905Z,19.57
2018-12-15T02:01:04.452Z,20.87
2018-12-15T02:03:46.641Z,21.63
2018-12-15T02:06:25.448Z,21.27
2018-12-15T02:09:07.792Z,19.00
2018-12-15T02:11:46.483Z,20.70
2018-12-15T02:14:22.878Z,18.10
2018-12-15T02:16:59.387Z,24.17
2018-12-15T02:19:36.054Z,25.10
2018-12-15T02:22:12.834Z,21.63
2018-12-15T02:24:49.486Z,19.90
2018-12-15T02:27:23.431Z,21.20
2018-12-15T02:29:53.808Z,21.20
2018-12-15T02:32:28.818Z,22.03
2018-12-15T02:34:59.749Z,21.03
2018-12-15T02:37:32.568Z,22.23
2018-12-15T02:40:09.068Z,22.97
2018-12-15T02:42:43.533Z,24.30
2018-12-15T02:45:13.924Z,22.17
2018-12-15T02:47:47.343Z,24.97
2018-12-15T02:50:30.231Z,22.27
2018-12-15T02:53:07.449Z,21.90
2018-12-15T02:55:38.870Z,27.17
2018-12-15T02:58:15.530Z,24.73
2018-12-15T03:00:47.822Z,21.27
2018-12-15T03:03:21.393Z,22.63
2018-12-15T03:06:03.778Z,24.60
2018-12-15T03:08:39.900Z,22.53
2018-12-15T03:11:16.368Z,24.03
2018-12-15T03:13:52.181Z,22.47
2018-12-15T03:19:19.020Z,26.67
2018-12-15T03:21:53.064Z,23.27
2018-12-15T03:27:07.555Z,20.27
2018-12-15T03:29:38.004Z,24.00
2018-12-15T03:32:12.321Z,20.73
2018-12-15T03:34:54.725Z,21.30
2018-12-15T03:37:34.688Z,23.23
2018-12-15T03:40:12.223Z,22.87
2018-12-15T03:42:42.804Z,25.10
2018-12-15T03:45:16.120Z,27.50
2018-12-15T03:47:56.163Z,25.97
2018-12-15T03:50:32.330Z,24.03
2018-12-15T03:53:02.745Z,23.97
2018-12-15T03:55:34.757Z,21.10
2018-12-15T03:58:17.723Z,22.57
2018-12-15T04:00:48.125Z,23.00
2018-12-15T04:03:18.500Z,23.47
2018-12-15T04:05:48.867Z,22.47
2018-12-15T04:08:25.577Z,26.80
2018-12-15T04:10:55.985Z,25.50
2018-12-15T04:13:32.407Z,23.97
2018-12-15T04:16:02.833Z,23.03
2018-12-15T04:18:33.220Z,23.97
2018-12-15T04:21:03.628Z,23.17
2018-12-15T04:23:36.952Z,21.30
2018-12-15T04:26:07.322Z,22.33
2018-12-15T04:28:43.961Z,23.07
2018-12-15T04:31:18.335Z,19.80
2018-12-15T04:33:54.923Z,23.23
2018-12-15T04:36:25.376Z,22.07
2018-12-15T04:39:03.988Z,22.83
2018-12-15T04:41:36.183Z,24.50
2018-12-15T04:44:06.651Z,21.57
2018-12-15T04:46:38.031Z,21.17
2018-12-15T04:49:20.583Z,23.00
2018-12-15T04:51:54.320Z,24.33
2018-12-15T04:54:34.936Z,22.43
2018-12-15T04:57:15.172Z,23.80
2018-12-15T04:59:46.552Z,23.33
2018-12-15T05:02:16.958Z,22.70
2018-12-15T05:04:54.822Z,22.30
2018-12-15T05:07:31.495Z,22.87
2018-12-15T05:10:08.962Z,21.53
2018-12-15T05:12:39.354Z,22.67
2018-12-15T05:15:09.752Z,20.87
2018-12-15T05:17:45.659Z,24.20
2018-12-15T05:20:23.542Z,22.70
2018-12-15T05:23:06.511Z,23.30
2018-12-15T05:25:38.132Z,21.70
2018-12-15T05:28:08.608Z,24.10
2018-12-15T05:30:39.026Z,21.53
2018-12-15T05:33:09.437Z,24.10
2018-12-15T05:35:49.687Z,26.17
2018-12-15T05:38:22.253Z,25.80
2018-12-15T05:40:52.765Z,23.90
2018-12-15T05:43:24.402Z,26.60
2018-12-15T05:45:56.793Z,21.80
2018-12-15T05:48:47.780Z,22.50
2018-12-15T05:51:28.399Z,23.87
2018-12-15T05:53:58.813Z,23.00
2018-12-15T05:56:29.226Z,24.27
2018-12-15T05:58:59.653Z,23.40
2018-12-15T06:01:30.050Z,25.10
2018-12-15T06:04:00.820Z,24.57
2018-12-15T06:06:31.299Z,24.70
2018-12-15T06:09:01.785Z,22.93
2018-12-15T06:11:35.307Z,25.23
2018-12-15T06:14:06.096Z,21.00
2018-12-15T06:16:36.466Z,21.60
2018-12-15T06:19:06.928Z,24.63
2018-12-15T06:21:38.404Z,25.20
2018-12-15T06:24:09.222Z,25.10
2018-12-15T06:26:39.927Z,25.37
2018-12-15T06:29:10.335Z,23.37
2018-12-15T06:31:40.701Z,22.73
2018-12-15T06:34:11.096Z,22.63
2018-12-15T06:36:41.502Z,23.60
2018-12-15T06:39:12.214Z,24.23
2018-12-15T06:41:44.707Z,25.07
2018-12-15T06:44:15.320Z,24.33
2018-12-15T06:46:46.171Z,24.13
2018-12-15T06:49:17.015Z,30.17
2018-12-15T06:51:47.911Z,25.00
2018-12-15T06:54:18.419Z,26.47
2018-12-15T06:56:48.909Z,27.60
2018-12-15T06:59:19.364Z,27.40
2018-12-15T07:01:49.801Z,25.67
2018-12-15T07:04:20.500Z,26.80
2018-12-15T07:06:50.858Z,26.23
2018-12-15T07:09:21.358Z,21.53
2018-12-15T07:11:52.515Z,23.80
2018-12-15T07:14:23.343Z,24.37
2018-12-15T07:16:53.717Z,25.70
2018-12-15T07:19:24.513Z,21.60
2018-12-15T07:21:55.211Z,25.00
2018-12-15T07:24:25.652Z,22.87
2018-12-15T07:26:56.025Z,21.37
2018-12-15T07:29:26.482Z,20.77
2018-12-15T07:31:56.983Z,23.57
2018-12-15T07:34:27.429Z,23.10
2018-12-15T07:36:58.743Z,23.57
2018-12-15T07:39:29.135Z,21.60
2018-12-15T07:41:59.554Z,23.20
2018-12-15T07:44:29.920Z,23.63
2018-12-15T07:47:00.587Z,20.83
2018-12-15T07:49:31.079Z,23.37
2018-12-15T07:52:01.711Z,26.37
2018-12-15T07:54:32.164Z,29.73
2018-12-15T07:57:02.878Z,25.50
2018-12-15T07:59:33.335Z,24.50
2018-12-15T08:02:04.298Z,22.23
2018-12-15T08:04:35.042Z,30.70
2018-12-15T08:07:06.536Z,24.20
2018-12-15T08:09:37.743Z,22.97
2018-12-15T08:12:13.496Z,25.97
2018-12-15T08:14:45.388Z,25.33
2018-12-15T08:17:20.888Z,24.57
2018-12-15T08:19:52.182Z,26.60
2018-12-15T08:22:26.049Z,29.57
2018-12-15T08:24:55.457Z,26.97
2018-12-15T08:27:26.149Z,24.13
2018-12-15T08:29:56.870Z,23.80
2018-12-15T08:32:27.605Z,21.37
2018-12-15T08:35:00.237Z,25.70
2018-12-15T08:37:30.663Z,29.07
2018-12-15T08:40:01.050Z,25.73
2018-12-15T08:42:32.219Z,30.40
2018-12-15T08:45:02.734Z,25.70
2018-12-15T08:47:34.773Z,23.53
2018-12-15T08:50:06.012Z,25.77
2018-12-15T08:52:36.396Z,23.80
2018-12-15T08:55:07.065Z,21.13
2018-12-15T08:57:37.454Z,21.17
2018-12-15T09:00:08.052Z,27.23
2018-12-15T09:02:38.532Z,26.70
2018-12-15T09:05:09.034Z,27.47
2018-12-15T09:07:41.508Z,23.03
2018-12-15T09:10:12.117Z,25.53
2018-12-15T09:12:43.783Z,26.30
2018-12-15T09:15:18.161Z,30.57
2018-12-15T09:17:49.636Z,30.97
2018-12-15T09:20:21.067Z,26.33
2018-12-15T09:22:53.581Z,24.33
2018-12-15T09:25:24.901Z,19.60
2018-12-15T09:27:56.306Z,23.37
2018-12-15T09:30:28.416Z,25.93
2018-12-15T09:33:00.925Z,24.20
2018-12-15T09:35:32.484Z,27.67
2018-12-15T09:38:03.779Z,27.57
2018-12-15T09:40:34.960Z,23.57
2018-12-15T09:43:06.272Z,21.97
2018-12-15T09:45:37.580Z,24.00
2018-12-15T09:48:08.522Z,25.33
2018-12-15T09:50:39.557Z,23.70
2018-12-15T09:53:10.533Z,23.47
2018-12-15T09:55:41.546Z,23.30
2018-12-15T09:58:12.460Z,23.13
2018-12-15T10:00:43.213Z,22.17
2018-12-15T10:03:13.602Z,23.33
2018-12-15T10:05:44.070Z,23.97
2018-12-15T10:08:14.498Z,24.67
2018-12-15T10:10:44.952Z,27.03
2018-12-15T10:13:15.359Z,23.10
2018-12-15T10:15:45.925Z,23.03
2018-12-15T10:18:16.393Z,24.73
2018-12-15T10:20:46.794Z,25.10
2018-12-15T10:23:17.468Z,25.57
2018-12-15T10:25:48.945Z,24.37
2018-12-15T10:28:20.249Z,21.30
2018-12-15T10:30:56.120Z,25.03
2018-12-15T10:33:26.554Z,19.83
2018-12-15T10:35:57.040Z,22.70
2018-12-15T10:38:27.423Z,22.07
2018-12-15T10:40:57.923Z,21.83
2018-12-15T10:43:28.383Z,24.67
2018-12-15T10:45:58.882Z,20.07
2018-12-15T10:48:30.996Z,24.03
2018-12-15T10:51:01.466Z,22.27
2018-12-15T10:53:33.139Z,21.20
2018-12-15T10:56:03.531Z,22.27
2018-12-15T10:58:34.889Z,24.40
2018-12-15T11:01:13.072Z,23.10
2018-12-15T11:03:45.224Z,21.57
2018-12-15T11:06:15.717Z,21.77
2018-12-15T11:08:47.265Z,20.10
2018-12-15T11:11:17.757Z,21.50
2018-12-15T11:13:48.207Z,24.50
2018-12-15T11:16:18.598Z,23.03
2018-12-15T11:18:49.074Z,24.57
2018-12-15T11:21:19.451Z,24.03
2018-12-15T11:23:49.945Z,25.20
2018-12-15T11:26:20.446Z,30.97
2018-12-15T11:28:50.852Z,19.60
2018-12-15T11:31:21.335Z,22.53
2018-12-15T11:33:54.487Z,21.40
2018-12-15T11:36:24.878Z,23.17
2018-12-15T11:38:55.254Z,23.63
2018-12-15T11:41:26.677Z,21.77
2018-12-15T11:43:57.122Z,24.57
2018-12-15T11:46:27.635Z,20.70
2018-12-15T11:48:58.091Z,27.03
2018-12-15T11:51:28.507Z,21.77
2018-12-15T11:53:58.989Z,25.90
2018-12-15T11:56:29.483Z,20.83
2018-12-15T11:58:59.954Z,24.13
2018-12-15T12:01:30.923Z,22.37
2018-12-15T12:04:01.318Z,22.07
2018-12-15T12:06:31.970Z,21.63
2018-12-15T12:09:02.449Z,19.77
2018-12-15T12:11:34.584Z,21.10
2018-12-15T12:14:05.094Z,23.97
2018-12-15T12:16:35.743Z,26.43
2018-12-15T12:19:06.267Z,22.37
2018-12-15T12:21:36.697Z,24.70
2018-12-15T12:24:07.076Z,23.87
2018-12-15T12:26:39.200Z,24.40
2018-12-15T12:29:09.623Z,27.27
2018-12-15T12:31:40.054Z,24.10
2018-12-15T12:34:10.450Z,23.03
2018-12-15T12:36:40.878Z,20.33
2018-12-15T12:39:11.745Z,23.50
2018-12-15T12:41:45.680Z,24.83
2018-12-15T12:44:16.201Z,19.73
2018-12-15T12:46:47.655Z,20.67
2018-12-15T12:49:18.163Z,21.63
2018-12-15T12:51:48.662Z,21.07
2018-12-15T12:54:19.061Z,24.57
2018-12-15T12:56:50.913Z,20.83
2018-12-15T12:59:25.859Z,24.40
2018-12-15T13:01:56.904Z,21.23
2018-12-15T13:04:27.302Z,24.40
2018-12-15T13:06:57.688Z,28.03
2018-12-15T13:09:34.100Z,21.43
2018-12-15T13:12:14.376Z,22.80
2018-12-15T13:14:44.836Z,18.80
2018-12-15T13:17:24.829Z,19.47
2018-12-15T13:20:03.834Z,23.77
2018-12-15T13:22:41.769Z,23.07
2018-12-15T13:25:22.001Z,30.17
2018-12-15T13:27:56.060Z,30.07
2018-12-15T13:30:37.392Z,32.37
2018-12-15T13:33:21.692Z,31.80
2018-12-15T13:36:07.016Z,34.87
2018-12-15T13:38:40.325Z,36.67
2018-12-15T13:41:21.010Z,30.40
2018-12-15T13:44:03.171Z,37.00
2018-12-15T13:46:40.959Z,26.13
2018-12-15T13:49:22.407Z,23.77
2018-12-15T13:52:00.921Z,24.77
2018-12-15T13:54:49.634Z,22.70
2018-12-15T13:57:26.650Z,18.17
2018-12-15T14:00:04.394Z,20.97
2018-12-15T14:02:42.024Z,18.47
2018-12-15T14:05:16.694Z,22.13
2018-12-15T14:07:59.072Z,20.53
2018-12-15T14:10:29.559Z,21.10
2018-12-15T14:13:11.517Z,20.33
2018-12-15T14:15:42.147Z,20.50
2018-12-15T14:18:16.126Z,25.53
2018-12-15T14:20:46.824Z,25.47
2018-12-15T14:23:22.669Z,23.03
2018-12-15T14:25:58.754Z,19.67
2018-12-15T14:28:39.507Z,18.87
2018-12-15T14:31:10.301Z,19.37
2018-12-15T14:33:41.102Z,18.00
2018-12-15T14:36:17.512Z,20.70
2018-12-15T14:39:00.473Z,20.60
2018-12-15T14:41:30.988Z,21.07
2018-12-15T14:44:01.670Z,20.17
2018-12-15T14:46:38.109Z,21.00
2018-12-15T14:49:13.583Z,24.80
2018-12-15T14:51:43.969Z,24.27
2018-12-15T14:54:14.375Z,23.20
2018-12-15T14:56:48.686Z,24.80
2018-12-15T14:59:19.054Z,22.83
2018-12-15T15:01:50.400Z,21.47
2018-12-15T15:04:20.807Z,22.10
2018-12-15T15:06:51.200Z,25.43
2018-12-15T15:09:21.891Z,22.30
2018-12-15T15:11:52.320Z,24.10
2018-12-15T15:14:23.691Z,24.07
2018-12-15T15:16:54.070Z,22.63
2018-12-15T15:19:24.560Z,24.40
2018-12-15T15:21:54.912Z,24.83
2018-12-15T15:24:25.495Z,24.93
2018-12-15T15:26:55.883Z,24.03
2018-12-15T15:29:26.297Z,20.70
2018-12-15T15:31:56.740Z,24.47
2018-12-15T15:34:27.132Z,26.10
2018-12-15T15:37:03.673Z,21.90
2018-12-15T15:39:37.129Z,26.60
2018-12-15T15:42:15.315Z,27.43
2018-12-15T15:44:52.111Z,22.50
2018-12-15T15:47:22.544Z,24.80
2018-12-15T15:49:52.937Z,25.93
2018-12-15T15:52:23.416Z,23.80
2018-12-15T15:54:53.804Z,24.47
2018-12-15T15:57:24.184Z,31.43
2018-12-15T15:59:54.703Z,24.90
2018-12-15T16:02:25.083Z,25.13
2018-12-15T16:04:55.491Z,25.53
2018-12-15T16:07:25.867Z,24.70
2018-12-15T16:09:56.287Z,24.33
2018-12-15T16:12:26.646Z,25.10
2018-12-15T16:14:57.098Z,23.70
2018-12-15T16:17:27.692Z,27.37
2018-12-15T16:19:59.060Z,27.07
2018-12-15T16:22:29.470Z,27.50
2018-12-15T16:24:59.846Z,29.63
2018-12-15T16:27:30.255Z,30.63
2018-12-15T16:30:01.651Z,24.70
2018-12-15T16:32:32.347Z,28.77
2018-12-15T16:35:02.785Z,26.13
2018-12-15T16:37:33.917Z,24.13
2018-12-15T16:40:06.719Z,27.30
2018-12-15T16:42:37.354Z,22.50
2018-12-15T16:45:09.006Z,22.03
2018-12-15T16:47:40.368Z,22.03
2018-12-15T16:50:11.447Z,23.90
2018-12-15T16:52:42.217Z,23.03
2018-12-15T16:55:13.001Z,22.10
2018-12-15T16:57:44.568Z,22.67
2018-12-15T17:00:15.072Z,23.47
2018-12-15T17:02:45.852Z,22.37
2018-12-15T17:05:17.379Z,24.83
2018-12-15T17:07:47.955Z,24.63
2018-12-15T17:10:18.555Z,23.50
2018-12-15T17:12:49.040Z,23.50
2018-12-15T17:15:20.871Z,24.07
2018-12-15T17:17:51.376Z,23.50
2018-12-15T17:20:21.756Z,23.97
2018-12-15T17:22:52.260Z,29.17
2018-12-15T17:25:22.638Z,26.80
2018-12-15T17:27:53.066Z,26.57
2018-12-15T17:30:23.529Z,24.67
2018-12-15T17:32:54.064Z,26.30
2018-12-15T17:35:24.600Z,26.73
2018-12-15T17:37:55.148Z,27.70
2018-12-15T17:40:25.618Z,23.87
2018-12-15T17:42:56.429Z,29.43
2018-12-15T17:45:26.895Z,24.07
2018-12-15T17:48:11.162Z,24.07
2018-12-15T17:50:52.525Z,23.47
2018-12-15T17:53:24.828Z,21.57
2018-12-15T17:55:57.454Z,25.83
2018-12-15T17:58:28.870Z,24.00
2018-12-15T18:00:59.876Z,24.90
2018-12-15T18:03:30.348Z,22.97
2018-12-15T18:06:00.781Z,19.80
2018-12-15T18:08:31.148Z,18.47
2018-12-15T18:11:01.572Z,21.10
2018-12-15T18:13:33.284Z,20.73
2018-12-15T18:16:04.317Z,22.70
2018-12-15T18:18:37.553Z,20.73
2018-12-15T18:21:09.943Z,22.40
2018-12-15T18:23:43.721Z,20.63
2018-12-15T18:26:16.695Z,21.10
2018-12-15T18:28:48.212Z,23.73
2018-12-15T18:31:20.430Z,21.87
2018-12-15T18:33:53.171Z,21.53
2018-12-15T18:36:24.595Z,21.10
2018-12-15T18:38:55.147Z,21.80
2018-12-15T18:41:25.651Z,24.33
2018-12-15T18:43:56.182Z,22.33
2018-12-15T18:46:26.546Z,23.20
2018-12-15T18:48:56.958Z,21.00
2018-12-15T18:51:27.447Z,22.70
2018-12-15T18:53:58.251Z,23.87
2018-12-15T18:56:29.179Z,19.93
2018-12-15T18:58:59.863Z,22.23
2018-12-15T19:01:31.307Z,22.37
2018-12-15T19:04:07.948Z,27.17
2018-12-15T19:06:40.659Z,18.60
2018-12-15T19:09:11.496Z,28.73
2018-12-15T19:11:44.752Z,22.70
2018-12-15T19:14:17.953Z,19.63
2018-12-15T19:16:49.853Z,23.03
2018-12-15T19:19:20.590Z,23.60
2018-12-15T19:21:50.979Z,22.97
2018-12-15T19:24:22.465Z,21.00
2018-12-15T19:26:53.091Z,23.70
2018-12-15T19:29:23.496Z,21.53
2018-12-15T19:31:54.950Z,22.30
2018-12-15T19:34:25.359Z,20.67
2018-12-15T19:36:56.805Z,21.23
2018-12-15T19:39:27.701Z,19.67
2018-12-15T19:41:58.591Z,26.83
2018-12-15T19:44:29.467Z,24.03
2018-12-15T19:47:00.931Z,20.47
2018-12-15T19:49:31.614Z,22.67
2018-12-15T19:52:02.016Z,26.50
2018-12-15T19:54:32.421Z,23.97
2018-12-15T19:57:02.813Z,29.07
2018-12-15T19:59:33.189Z,25.97
2018-12-15T20:02:03.623Z,22.50
2018-12-15T20:04:34.302Z,25.37
2018-12-15T20:07:04.781Z,22.13
2018-12-15T20:09:35.175Z,26.80
2018-12-15T20:12:05.625Z,26.43
2018-12-15T20:14:36.125Z,24.07
2018-12-15T20:17:06.480Z,23.73
2018-12-15T20:19:36.958Z,31.20
2018-12-15T20:22:07.517Z,28.53
2018-12-15T20:24:39.627Z,25.13
2018-12-15T20:27:11.906Z,26.57
2018-12-15T20:29:45.093Z,29.00
2018-12-15T20:32:17.479Z,28.50
2018-12-15T20:34:50.275Z,22.80
2018-12-15T20:37:22.859Z,24.20
2018-12-15T20:39:54.242Z,25.43
2018-12-15T20:42:24.660Z,27.87
2018-12-15T20:44:55.138Z,29.17
2018-12-15T20:47:27.956Z,27.57
2018-12-15T20:49:57.964Z,27.83
2018-12-15T20:52:28.409Z,28.43
2018-12-15T20:54:58.904Z,33.50
2018-12-15T20:57:31.256Z,28.60
2018-12-15T21:00:01.706Z,26.93
2018-12-15T21:02:33.183Z,27.67
2018-12-15T21:05:05.038Z,26.83
2018-12-15T21:07:35.537Z,27.03
2018-12-15T21:10:07.188Z,27.13
2018-12-15T21:12:37.628Z,29.27
2018-12-15T21:15:09.962Z,25.30
2018-12-15T21:17:40.468Z,26.87
2018-12-15T21:20:11.131Z,24.57
2018-12-15T21:22:44.446Z,25.43
2018-12-15T21:25:16.498Z,31.53
2018-12-15T21:27:48.747Z,29.17
2018-12-15T21:30:22.708Z,26.83
2018-12-15T21:32:55.764Z,31.53
2018-12-15T21:35:28.253Z,25.93
2018-12-15T21:37:59.824Z,27.27
2018-12-15T21:40:32.193Z,26.73
2018-12-15T21:43:03.988Z,29.87
2018-12-15T21:45:36.183Z,29.97
2018-12-15T21:48:09.658Z,31.57
2018-12-15T21:50:45.775Z,30.20
2018-12-15T21:53:18.138Z,32.23
2018-12-15T21:55:50.810Z,32.97
2018-12-15T21:58:23.175Z,33.37
2018-12-15T22:00:55.342Z,26.90
2018-12-15T22:03:41.626Z,29.77
2018-12-15T22:06:14.219Z,27.63
2018-12-15T22:08:47.017Z,29.00
2018-12-15T22:11:18.757Z,32.37
2018-12-15T22:13:51.042Z,29.67
2018-12-15T22:16:22.015Z,24.57
2018-12-15T22:18:52.418Z,29.17
2018-12-15T22:21:23.555Z,26.23
2018-12-15T22:23:53.949Z,29.93
2018-12-15T22:26:24.376Z,27.50
2018-12-15T22:28:56.520Z,30.95
2018-12-15T22:31:37.499Z,26.90
2018-12-15T22:34:08.382Z,29.40
2018-12-15T22:36:38.797Z,27.33
2018-12-15T22:39:09.208Z,30.40
2018-12-15T22:41:39.623Z,30.10
2018-12-15T22:44:10.322Z,27.27
2018-12-15T22:46:42.910Z,29.07
2018-12-15T22:49:14.133Z,29.63
2018-12-15T22:51:46.149Z,31.90
2018-12-15T22:54:18.419Z,31.35
2018-12-15T22:56:49.590Z,27.63
2018-12-15T22:59:21.144Z,39.23
2018-12-15T23:01:53.030Z,26.43
2018-12-15T23:04:24.297Z,27.53
2018-12-15T23:06:55.621Z,30.13
2018-12-15T23:09:26.118Z,35.07
2018-12-15T23:11:56.733Z,34.37
2018-12-15T23:14:29.264Z,33.67
2018-12-15T23:17:00.805Z,30.57
2018-12-15T23:19:32.608Z,35.63
2018-12-15T23:22:04.776Z,27.63
2018-12-15T23:24:43.775Z,29.00
2018-12-15T23:27:14.912Z,30.53
2018-12-15T23:29:45.612Z,33.40
2018-12-15T23:32:16.352Z,34.87
2018-12-15T23:34:47.628Z,28.63
2018-12-15T23:37:19.506Z,26.70
2018-12-15T23:39:50.186Z,27.00
2018-12-15T23:42:20.774Z,28.73
2018-12-15T23:44:53.098Z,31.00
2018-12-15T23:47:23.867Z,28.47
2018-12-15T23:49:54.581Z,28.60
2018-12-15T23:52:25.022Z,29.67
2018-12-15T23:54:55.425Z,28.57
2018-12-15T23:57:25.823Z,29.20
2018-12-15T23:59:56.243Z,28.27
